This is the latest recevied weather packets stored in our database for station/object 9W2KHE-10. If no packets are shown the sender has not sent any weather packets the latest 10 day(s).
| Time | Temp. | Humidity | Pressure | Rain* | Wind** | Luminosity | Snow |
|---|---|---|---|---|---|---|---|
| 1777939342 | 28.89° C | 64% | 1011.5 hPa | - | - | - | - |
| 1777938442 | 28.89° C | 63% | 1011.4 hPa | - | - | - | - |
| 1777937542 | 28.89° C | 63% | 1011.2 hPa | - | - | - | - |
| 1777936642 | 28.89° C | 63% | 1011.3 hPa | - | - | - | - |
| 1777935742 | 28.89° C | 63% | 1011.1 hPa | - | - | - | - |
| 1777934842 | 28.89° C | 62% | 1010.9 hPa | - | - | - | - |
| 1777933941 | 28.89° C | 63% | 1010.9 hPa | - | - | - | - |
| 1777933041 | 28.89° C | 63% | 1010.7 hPa | - | - | - | - |
| 1777932141 | 28.89° C | 62% | 1010.4 hPa | - | - | - | - |
| 1777931241 | 28.89° C | 62% | 1010.2 hPa | - | - | - | - |
| 1777930341 | 28.89° C | 62% | 1010.3 hPa | - | - | - | - |
| 1777929441 | 28.89° C | 63% | 1010.4 hPa | - | - | - | - |
| 1777928541 | 28.89° C | 62% | 1010.4 hPa | - | - | - | - |
| 1777927641 | 29.44° C | 62% | 1010.3 hPa | - | - | - | - |
| 1777926741 | 30° C | 59% | 1010.5 hPa | - | - | - | - |
| 1777925840 | 32.22° C | 54% | 1010.3 hPa | - | - | - | - |
| 1777907145 | 30.56° C | 62% | 1012.3 hPa | - | - | - | - |
| 1777906245 | 30.56° C | 61% | 1012.2 hPa | - | - | - | - |
| 1777905345 | 30.56° C | 61% | 1012.1 hPa | - | - | - | - |
| 1777904445 | 30.56° C | 61% | 1011.9 hPa | - | - | - | - |
| 1777903545 | 30.56° C | 61% | 1011.9 hPa | - | - | - | - |
| 1777902645 | 30.56° C | 61% | 1011.8 hPa | - | - | - | - |
| 1777901745 | 30.56° C | 60% | 1011.6 hPa | - | - | - | - |
| 1777900845 | 31.11° C | 60% | 1011.6 hPa | - | - | - | - |
| 1777899944 | 31.11° C | 60% | 1011.5 hPa | - | - | - | - |
* Rain since midnight (hover to see other rain measurements)
** Current wind speed in m/s (hover to see current wind gust speed)